Time;durP1;ratioP1;P1;durP2;ratioP2;P2;SDS_P1;SDS_P2;PMS_P1;PMS_P2;Temp;Humidity;BMP_temperature;BMP_pressure;BME280_temperature;BME280_humidity;BME280_pressure;Samples;Min_cycle;Max_cycle;Signal;HPM_P1;HPM_P2
2023/10/18 00:00:32;;;;;;;5.15;1.70;;;;;;;;;;1029449;28;20471;-74
2023/10/18 00:01:04;;;;;;;1.90;1.80;;;;;;;;;;1029822;28;20014;-75
2023/10/18 00:01:34;;;;;;;5.93;1.17;;;;;;;;;;1031524;28;20027;-75
2023/10/18 00:02:16;;;;;;;0.68;0.68;;;;;;;;;;1031538;28;20441;-75
2023/10/18 00:02:47;;;;;;;0.60;0.60;;;;;;;;;;1031539;28;20030;-75
2023/10/18 00:03:19;;;;;;;0.50;0.50;;;;;;;;;;1031252;28;20109;-75
2023/10/18 00:03:52;;;;;;;10.35;1.08;;;;;;;;;;1029519;28;20081;-75
2023/10/18 00:04:23;;;;;;;13.23;2.05;;;;;;;;;;1028591;28;20382;-75
2023/10/18 00:04:54;;;;;;;1.88;1.77;;;;;;;;;;1033608;28;20038;-75
2023/10/18 00:05:25;;;;;;;1.38;1.25;;;;;;;;;;1034473;28;20509;-75
2023/10/18 00:06:00;;;;;;;1.23;1.13;;;;;;;;;;1033586;28;20445;-75
2023/10/18 00:06:32;;;;;;;0.70;0.70;;;;;;;;;;1032728;28;20029;-75
2023/10/18 00:07:02;;;;;;;5.35;1.73;;;;;;;;;;1027130;28;20117;-75
2023/10/18 00:07:34;;;;;;;0.60;0.60;;;;;;;;;;1031331;28;20019;-75
2023/10/18 00:08:08;;;;;;;0.47;0.47;;;;;;;;;;1031417;28;20034;-75
2023/10/18 00:08:39;;;;;;;1.30;1.20;;;;;;;;;;1030979;28;20076;-75
2023/10/18 00:09:59;;;;;;;0.80;0.77;;;;;;;;;;1028393;28;20026;-75
2023/10/18 00:10:33;;;;;;;6.97;1.23;;;;;;;;;;1027774;28;20054;-75
2023/10/18 00:11:03;;;;;;;1.00;1.00;;;;;;;;;;1029068;28;20027;-75
2023/10/18 00:11:34;;;;;;;0.22;0.22;;;;;;;;;;1029430;28;20469;-76
2023/10/18 00:12:07;;;;;;;0.45;0.45;;;;;;;;;;1029420;28;20142;-75
2023/10/18 00:12:39;;;;;;;1.38;1.27;;;;;;;;;;1030057;28;20027;-75
2023/10/18 00:13:11;;;;;;;8.60;0.90;;;;;;;;;;1031515;28;20520;-75
2023/10/18 00:13:43;;;;;;;2.17;0.50;;;;;;;;;;1031379;28;20018;-75
2023/10/18 00:14:15;;;;;;;0.82;0.82;;;;;;;;;;1031332;28;20113;-75
2023/10/18 00:14:45;;;;;;;0.85;0.47;;;;;;;;;;1030980;28;20484;-75
2023/10/18 00:15:16;;;;;;;2.10;1.95;;;;;;;;;;1030436;28;20022;-75
2023/10/18 00:15:52;;;;;;;0.98;0.98;;;;;;;;;;1029803;28;20521;-75
2023/10/18 00:16:23;;;;;;;1.40;0.88;;;;;;;;;;1029653;28;20474;-75
2023/10/18 00:16:54;;;;;;;0.82;0.82;;;;;;;;;;1030044;28;20040;-75
2023/10/18 00:17:24;;;;;;;3.30;1.80;;;;;;;;;;1029651;28;20062;-75
2023/10/18 00:17:55;;;;;;;1.85;1.75;;;;;;;;;;1032944;28;20025;-75
2023/10/18 00:18:25;;;;;;;1.88;1.73;;;;;;;;;;1032869;28;20026;-75
2023/10/18 00:18:56;;;;;;;1.45;1.35;;;;;;;;;;1033711;28;20030;-75
2023/10/18 00:19:26;;;;;;;1.35;1.20;;;;;;;;;;1033539;28;20081;-75
2023/10/18 00:19:57;;;;;;;4.47;1.10;;;;;;;;;;1029822;28;20117;-75
2023/10/18 00:20:28;;;;;;;1.80;1.67;;;;;;;;;;1029772;28;20140;-75
2023/10/18 00:20:59;;;;;;;1.73;1.50;;;;;;;;;;1033485;28;20026;-75
2023/10/18 00:21:32;;;;;;;0.95;0.95;;;;;;;;;;1033457;28;20501;-75
2023/10/18 00:22:03;;;;;;;1.05;1.05;;;;;;;;;;1033615;28;20093;-75
2023/10/18 00:22:33;;;;;;;1.40;1.33;;;;;;;;;;1032983;28;20023;-75
2023/10/18 00:23:04;;;;;;;0.65;0.65;;;;;;;;;;1030029;28;20114;-75
2023/10/18 00:23:34;;;;;;;0.50;0.50;;;;;;;;;;1028763;28;20026;-75
2023/10/18 00:24:05;;;;;;;0.77;0.77;;;;;;;;;;1029363;28;20469;-75
2023/10/18 00:24:39;;;;;;;1.15;1.10;;;;;;;;;;1029500;28;20027;-75
2023/10/18 00:25:10;;;;;;;1.67;1.58;;;;;;;;;;1029454;28;20030;-75
2023/10/18 00:25:41;;;;;;;0.50;0.50;;;;;;;;;;1030139;28;20117;-75
2023/10/18 00:26:11;;;;;;;0.30;0.30;;;;;;;;;;1033437;28;20017;-75
2023/10/18 00:26:42;;;;;;;0.63;0.63;;;;;;;;;;1033412;28;20033;-75
2023/10/18 00:27:13;;;;;;;1.88;1.77;;;;;;;;;;1029827;28;20055;-75
2023/10/18 00:27:46;;;;;;;0.30;0.30;;;;;;;;;;1030387;28;20027;-75
2023/10/18 00:28:17;;;;;;;0.63;0.63;;;;;;;;;;1031204;28;20113;-75
2023/10/18 00:28:50;;;;;;;0.75;0.75;;;;;;;;;;1027415;28;20022;-72
2023/10/18 00:29:20;;;;;;;1.20;1.20;;;;;;;;;;1027266;28;20022;-72
2023/10/18 00:29:54;;;;;;;0.82;0.60;;;;;;;;;;1027871;28;20031;-72
2023/10/18 00:30:27;;;;;;;1.65;1.58;;;;;;;;;;1030290;28;20030;-73
2023/10/18 00:30:59;;;;;;;3.05;2.85;;;;;;;;;;1029528;28;20022;-74
2023/10/18 00:31:29;;;;;;;1.88;1.75;;;;;;;;;;1030816;28;20033;-74
2023/10/18 00:32:00;;;;;;;0.50;0.50;;;;;;;;;;1027337;28;20152;-74
2023/10/18 00:32:30;;;;;;;2.55;1.10;;;;;;;;;;1027437;28;20034;-74
2023/10/18 00:33:01;;;;;;;1.25;1.15;;;;;;;;;;1027657;28;20018;-74
2023/10/18 00:33:32;;;;;;;3.08;2.85;;;;;;;;;;1031465;28;20029;-74
2023/10/18 00:34:05;;;;;;;0.90;0.90;;;;;;;;;;1029775;28;20027;-74
2023/10/18 00:34:35;;;;;;;0.88;0.75;;;;;;;;;;1029672;28;20026;-73
2023/10/18 00:35:57;;;;;;;4.03;3.42;;;;;;;;;;1029880;28;20458;-74
2023/10/18 00:36:27;;;;;;;8.30;2.53;;;;;;;;;;1029613;28;20026;-74
2023/10/18 00:36:58;;;;;;;1.08;0.98;;;;;;;;;;1029905;28;20061;-75
2023/10/18 00:37:30;;;;;;;0.60;0.60;;;;;;;;;;1030600;28;20088;-75
2023/10/18 00:38:00;;;;;;;1.40;1.30;;;;;;;;;;1031300;28;20086;-74
2023/10/18 00:38:31;;;;;;;1.73;1.63;;;;;;;;;;1031307;28;20065;-74
2023/10/18 00:39:19;;;;;;;4.00;3.45;;;;;;;;;;1031508;28;20474;-74
2023/10/18 00:39:51;;;;;;;1.08;1.02;;;;;;;;;;1031956;28;20053;-74
2023/10/18 00:41:05;;;;;;;0.52;0.52;;;;;;;;;;1031346;28;20060;-74
2023/10/18 00:41:42;;;;;;;0.93;0.93;;;;;;;;;;1031372;28;20437;-75
2023/10/18 00:42:25;;;;;;;2.00;1.80;;;;;;;;;;1029365;28;20022;-74
2023/10/18 00:43:22;;;;;;;2.78;1.08;;;;;;;;;;1027293;28;20141;-74
2023/10/18 00:43:52;;;;;;;8.45;2.42;;;;;;;;;;1027032;28;20023;-74
2023/10/18 00:44:23;;;;;;;3.15;1.27;;;;;;;;;;1031369;28;20041;-74
2023/10/18 00:45:02;;;;;;;3.25;1.75;;;;;;;;;;1029266;28;20117;-74
2023/10/18 00:45:36;;;;;;;4.07;0.88;;;;;;;;;;1027287;28;20027;-74
2023/10/18 00:46:07;;;;;;;3.95;2.17;;;;;;;;;;1026975;28;20034;-74
2023/10/18 00:46:39;;;;;;;0.63;0.63;;;;;;;;;;1029042;28;20027;-74
2023/10/18 00:47:13;;;;;;;3.20;1.55;;;;;;;;;;1031078;28;20501;-75
2023/10/18 00:47:43;;;;;;;1.85;1.75;;;;;;;;;;1028438;28;20050;-75
2023/10/18 00:48:14;;;;;;;0.82;0.77;;;;;;;;;;1030043;28;20030;-75
2023/10/18 00:48:45;;;;;;;0.77;0.77;;;;;;;;;;1029771;28;20449;-75
2023/10/18 00:49:16;;;;;;;3.20;2.13;;;;;;;;;;1029759;28;20471;-75
2023/10/18 00:49:52;;;;;;;1.27;1.17;;;;;;;;;;1029855;28;20034;-75
2023/10/18 00:50:27;;;;;;;0.82;0.82;;;;;;;;;;1029681;28;20560;-75
2023/10/18 00:50:58;;;;;;;1.33;1.25;;;;;;;;;;1029618;28;20030;-75
2023/10/18 00:51:29;;;;;;;0.98;0.93;;;;;;;;;;1029812;28;20037;-75
2023/10/18 00:51:59;;;;;;;0.88;0.88;;;;;;;;;;1033053;28;20029;-75
2023/10/18 00:52:30;;;;;;;0.40;0.40;;;;;;;;;;1029958;28;20577;-74
2023/10/18 00:53:02;;;;;;;1.73;1.63;;;;;;;;;;1029831;28;20128;-74
2023/10/18 00:53:33;;;;;;;3.50;2.35;;;;;;;;;;1030384;28;20520;-74
2023/10/18 00:54:11;;;;;;;0.30;0.30;;;;;;;;;;1029181;28;20118;-74
2023/10/18 00:54:44;;;;;;;0.35;0.35;;;;;;;;;;1027097;28;20064;-74
2023/10/18 00:55:15;;;;;;;5.32;1.58;;;;;;;;;;1028388;28;20024;-74
2023/10/18 00:55:47;;;;;;;0.85;0.82;;;;;;;;;;1031265;28;20394;-74
2023/10/18 00:56:17;;;;;;;0.20;0.20;;;;;;;;;;1031384;28;20406;-75
2023/10/18 00:56:50;;;;;;;5.03;1.60;;;;;;;;;;1032003;28;20026;-74
2023/10/18 00:57:24;;;;;;;2.67;2.45;;;;;;;;;;1029198;28;20461;-74
2023/10/18 00:57:55;;;;;;;6.22;1.55;;;;;;;;;;1029081;28;20026;-74
2023/10/18 00:58:27;;;;;;;0.77;0.77;;;;;;;;;;1030976;28;20117;-75
2023/10/18 00:58:59;;;;;;;6.20;2.92;;;;;;;;;;1031349;28;20034;-75
2023/10/18 00:59:30;;;;;;;0.90;0.90;;;;;;;;;;1030196;28;20124;-74
2023/10/18 01:00:07;;;;;;;1.08;1.08;;;;;;;;;;1029219;28;20569;-75
2023/10/18 01:00:40;;;;;;;2.25;0.65;;;;;;;;;;1029353;28;20029;-75
2023/10/18 01:01:11;;;;;;;2.90;2.67;;;;;;;;;;1028676;28;20506;-75
2023/10/18 01:01:43;;;;;;;0.50;0.50;;;;;;;;;;1028507;28;20125;-75
2023/10/18 01:02:19;;;;;;;2.15;1.98;;;;;;;;;;1027681;28;20041;-75
2023/10/18 01:02:50;;;;;;;0.90;0.90;;;;;;;;;;1029085;28;20117;-75
2023/10/18 01:03:32;;;;;;;0.80;0.80;;;;;;;;;;1028407;28;20030;-75
2023/10/18 01:04:04;;;;;;;4.63;1.58;;;;;;;;;;1028736;28;20117;-75
2023/10/18 01:04:35;;;;;;;2.80;0.90;;;;;;;;;;1033219;28;20054;-75
2023/10/18 01:05:12;;;;;;;1.48;1.40;;;;;;;;;;1033507;28;20028;-75
2023/10/18 01:06:09;;;;;;;1.40;1.30;;;;;;;;;;1033707;28;20056;-75
2023/10/18 01:06:45;;;;;;;0.50;0.50;;;;;;;;;;1029344;28;20037;-74
2023/10/18 01:07:16;;;;;;;1.95;1.85;;;;;;;;;;1031935;28;20041;-74
2023/10/18 01:07:48;;;;;;;3.97;2.13;;;;;;;;;;1032359;28;20425;-74
2023/10/18 01:08:23;;;;;;;0.30;0.30;;;;;;;;;;1031554;28;20053;-74
2023/10/18 01:08:55;;;;;;;2.38;0.80;;;;;;;;;;1028833;28;20127;-74
2023/10/18 01:09:26;;;;;;;1.10;1.02;;;;;;;;;;1032131;28;20024;-75
2023/10/18 01:09:56;;;;;;;2.28;1.67;;;;;;;;;;1033572;28;20033;-75
2023/10/18 01:10:30;;;;;;;3.63;1.65;;;;;;;;;;1033430;28;20101;-74
2023/10/18 01:11:04;;;;;;;0.68;0.68;;;;;;;;;;1033300;28;20034;-75
2023/10/18 01:11:34;;;;;;;4.50;2.72;;;;;;;;;;1033439;28;20014;-75
2023/10/18 01:12:05;;;;;;;0.20;0.20;;;;;;;;;;1032962;28;20030;-74
2023/10/18 01:12:37;;;;;;;6.70;2.28;;;;;;;;;;1030523;28;20022;-74
2023/10/18 01:13:09;;;;;;;2.40;2.08;;;;;;;;;;1028776;28;20041;-74
2023/10/18 01:13:43;;;;;;;3.05;2.10;;;;;;;;;;1029850;28;20052;-73
2023/10/18 01:14:17;;;;;;;3.13;2.55;;;;;;;;;;1027916;28;20023;-74
2023/10/18 01:14:50;;;;;;;11.55;5.22;;;;;;;;;;1026874;28;20073;-74
2023/10/18 01:15:21;;;;;;;8.65;3.75;;;;;;;;;;1026166;28;20018;-75
2023/10/18 01:15:51;;;;;;;10.25;2.15;;;;;;;;;;1025109;28;20118;-74
2023/10/18 01:16:22;;;;;;;11.63;3.45;;;;;;;;;;1029300;28;20065;-74
2023/10/18 01:16:56;;;;;;;9.43;6.05;;;;;;;;;;1029854;28;20121;-74
2023/10/18 01:17:27;;;;;;;5.53;3.63;;;;;;;;;;1030888;28;20072;-75
2023/10/18 01:17:57;;;;;;;11.35;3.05;;;;;;;;;;1027692;28;20033;-75
2023/10/18 01:18:30;;;;;;;6.00;3.10;;;;;;;;;;1029596;28;20030;-75
2023/10/18 01:19:01;;;;;;;6.35;1.95;;;;;;;;;;1031290;28;20022;-75
2023/10/18 01:19:32;;;;;;;11.18;4.47;;;;;;;;;;1029033;28;20068;-75
2023/10/18 01:20:33;;;;;;;12.90;3.85;;;;;;;;;;1029461;28;20467;-73
2023/10/18 01:20:53;;;;;;;6.57;4.00;;;;;;;;;;1027320;28;20479;-74
2023/10/18 01:21:23;;;;;;;14.32;4.97;;;;;;;;;;1028100;28;20434;-74
2023/10/18 01:21:54;;;;;;;14.27;2.28;;;;;;;;;;1027496;28;20027;-74
2023/10/18 01:22:25;;;;;;;7.00;3.67;;;;;;;;;;1028275;28;20125;-74
2023/10/18 01:22:56;;;;;;;7.65;2.97;;;;;;;;;;1027271;28;20482;-75
2023/10/18 01:23:27;;;;;;;31.33;8.15;;;;;;;;;;1026393;28;20023;-74
2023/10/18 01:23:59;;;;;;;4.80;2.85;;;;;;;;;;1029553;28;20040;-74
2023/10/18 01:24:34;;;;;;;6.85;4.53;;;;;;;;;;1028975;28;20030;-74
2023/10/18 01:25:09;;;;;;;12.38;4.35;;;;;;;;;;1030554;28;20030;-74
2023/10/18 01:25:40;;;;;;;6.43;3.95;;;;;;;;;;1032820;28;20150;-74
2023/10/18 01:26:13;;;;;;;6.60;3.08;;;;;;;;;;1027235;28;20129;-74
2023/10/18 01:26:44;;;;;;;13.73;4.57;;;;;;;;;;1029305;28;20914;-74
2023/10/18 01:27:16;;;;;;;5.70;3.17;;;;;;;;;;1028830;28;20418;-73
2023/10/18 01:27:47;;;;;;;5.97;2.42;;;;;;;;;;1028683;28;20037;-74
2023/10/18 01:28:18;;;;;;;3.72;0.85;;;;;;;;;;1031220;28;20076;-74
2023/10/18 01:28:52;;;;;;;8.77;3.10;;;;;;;;;;1030222;28;20062;-74
2023/10/18 01:29:23;;;;;;;0.85;0.85;;;;;;;;;;1030856;28;20141;-75
2023/10/18 01:29:54;;;;;;;2.70;1.40;;;;;;;;;;1032270;28;20239;-74
2023/10/18 01:30:25;;;;;;;6.65;2.38;;;;;;;;;;1026412;28;20515;-74
2023/10/18 01:30:57;;;;;;;9.75;3.78;;;;;;;;;;1028135;28;20042;-74
2023/10/18 01:31:27;;;;;;;7.20;1.38;;;;;;;;;;1027657;28;20528;-74
2023/10/18 01:31:58;;;;;;;5.28;1.60;;;;;;;;;;1027931;28;20026;-72
2023/10/18 01:32:28;;;;;;;5.78;3.28;;;;;;;;;;1032262;28;20120;-73
2023/10/18 01:33:04;;;;;;;3.60;2.63;;;;;;;;;;1028333;28;20018;-72
2023/10/18 01:33:45;;;;;;;0.30;0.30;;;;;;;;;;1028630;28;20120;-72
2023/10/18 01:34:16;;;;;;;0.20;0.20;;;;;;;;;;1027069;28;20033;-73
2023/10/18 01:34:47;;;;;;;1.40;1.30;;;;;;;;;;1029038;28;20545;-74
2023/10/18 01:35:17;;;;;;;1.15;0.77;;;;;;;;;;1026889;28;20046;-74
2023/10/18 01:35:53;;;;;;;1.70;1.20;;;;;;;;;;1027679;28;20066;-74
2023/10/18 01:36:30;;;;;;;1.75;1.65;;;;;;;;;;1024746;28;20121;-74
2023/10/18 01:37:02;;;;;;;5.85;4.43;;;;;;;;;;1025423;28;20030;-74
2023/10/18 01:37:32;;;;;;;11.57;3.28;;;;;;;;;;1027143;28;20335;-74
2023/10/18 01:38:05;;;;;;;11.70;4.13;;;;;;;;;;1025773;28;20030;-75
2023/10/18 01:38:35;;;;;;;2.30;1.27;;;;;;;;;;1024386;28;20094;-74
2023/10/18 01:39:18;;;;;;;1.40;1.30;;;;;;;;;;1025556;28;20049;-73
2023/10/18 01:39:52;;;;;;;1.10;1.10;;;;;;;;;;1029440;28;20038;-74
2023/10/18 01:41:09;;;;;;;1.30;1.25;;;;;;;;;;1031025;28;20037;-75
2023/10/18 01:41:40;;;;;;;1.30;1.20;;;;;;;;;;1031884;28;20030;-76
2023/10/18 01:42:13;;;;;;;1.13;1.08;;;;;;;;;;1027507;28;20544;-79
2023/10/18 01:42:44;;;;;;;1.30;1.20;;;;;;;;;;1028606;28;20046;-79
2023/10/18 01:43:17;;;;;;;1.25;1.15;;;;;;;;;;1027890;28;20526;-76
2023/10/18 01:43:48;;;;;;;1.00;1.00;;;;;;;;;;1025888;28;20109;-75
2023/10/18 01:44:28;;;;;;;1.05;1.05;;;;;;;;;;1023915;28;20872;-74
2023/10/18 01:44:58;;;;;;;2.08;1.75;;;;;;;;;;1025026;28;20058;-74
2023/10/18 01:45:30;;;;;;;1.50;1.40;;;;;;;;;;1029022;28;20026;-74
2023/10/18 01:46:01;;;;;;;1.40;1.30;;;;;;;;;;1029386;28;20581;-76
2023/10/18 01:46:31;;;;;;;1.02;1.02;;;;;;;;;;1028274;28;20027;-73
2023/10/18 01:47:09;;;;;;;1.33;1.23;;;;;;;;;;1028779;28;20037;-75
2023/10/18 01:47:40;;;;;;;10.27;2.58;;;;;;;;;;1031680;28;20414;-76
2023/10/18 01:48:13;;;;;;;1.95;1.83;;;;;;;;;;1033053;28;20032;-74
2023/10/18 01:48:51;;;;;;;4.13;3.10;;;;;;;;;;1029504;28;20563;-74
2023/10/18 01:49:28;;;;;;;2.05;1.52;;;;;;;;;;1028259;28;20030;-74
2023/10/18 01:49:58;;;;;;;2.03;1.52;;;;;;;;;;1026422;28;20057;-73
2023/10/18 01:50:33;;;;;;;1.80;1.70;;;;;;;;;;1026506;28;20055;-74
2023/10/18 01:51:09;;;;;;;0.52;0.52;;;;;;;;;;1024752;28;20065;-75
2023/10/18 01:51:43;;;;;;;6.35;2.88;;;;;;;;;;1026549;28;20474;-76
2023/10/18 01:52:17;;;;;;;1.17;1.08;;;;;;;;;;1022988;28;20168;-75
2023/10/18 01:52:48;;;;;;;2.30;2.17;;;;;;;;;;1028550;28;20034;-74
2023/10/18 01:53:19;;;;;;;1.10;0.90;;;;;;;;;;1026106;28;20018;-77
2023/10/18 01:53:50;;;;;;;2.58;2.33;;;;;;;;;;1028465;28;20454;-76
2023/10/18 01:54:25;;;;;;;12.52;3.05;;;;;;;;;;1024080;28;20034;-74
2023/10/18 01:54:55;;;;;;;5.35;2.80;;;;;;;;;;1024673;28;20034;-73
2023/10/18 01:55:28;;;;;;;1.52;1.38;;;;;;;;;;1026794;28;20101;-73
2023/10/18 01:56:01;;;;;;;2.75;2.50;;;;;;;;;;1025635;28;20041;-74
2023/10/18 01:56:31;;;;;;;1.48;1.38;;;;;;;;;;1026072;28;20035;-75
2023/10/18 01:57:02;;;;;;;2.88;1.65;;;;;;;;;;1027398;28;20024;-76
2023/10/18 01:57:32;;;;;;;0.80;0.80;;;;;;;;;;1026906;28;20147;-75
2023/10/18 01:58:07;;;;;;;0.40;0.40;;;;;;;;;;1026656;28;20035;-75
2023/10/18 01:58:38;;;;;;;2.40;1.55;;;;;;;;;;1031495;28;20026;-76
2023/10/18 01:59:18;;;;;;;2.63;1.45;;;;;;;;;;1032614;28;20044;-75
2023/10/18 01:59:49;;;;;;;6.72;4.07;;;;;;;;;;1031611;28;20042;-75
2023/10/18 02:00:34;;;;;;;0.43;0.43;;;;;;;;;;1029940;28;20034;-74
2023/10/18 02:01:10;;;;;;;0.82;0.82;;;;;;;;;;1030376;28;20022;-74
2023/10/18 02:01:44;;;;;;;3.40;3.08;;;;;;;;;;1030230;28;20258;-75
2023/10/18 02:02:15;;;;;;;1.30;1.25;;;;;;;;;;1031441;28;20064;-75
2023/10/18 02:02:49;;;;;;;0.88;0.88;;;;;;;;;;1031192;28;20014;-75
2023/10/18 02:03:20;;;;;;;3.45;2.33;;;;;;;;;;1026727;28;20435;-76
2023/10/18 02:03:50;;;;;;;0.93;0.93;;;;;;;;;;1025106;28;20133;-74
2023/10/18 02:04:25;;;;;;;8.60;0.82;;;;;;;;;;1025894;28;20050;-74
2023/10/18 02:04:56;;;;;;;2.55;2.13;;;;;;;;;;1025161;28;20132;-76
2023/10/18 02:05:27;;;;;;;3.72;2.53;;;;;;;;;;1025662;28;20065;-75
2023/10/18 02:06:06;;;;;;;5.68;3.22;;;;;;;;;;1024542;28;20019;-77
2023/10/18 02:06:37;;;;;;;4.65;4.03;;;;;;;;;;1028472;28;20026;-76
2023/10/18 02:07:07;;;;;;;14.70;5.10;;;;;;;;;;1029264;28;20019;-75
2023/10/18 02:07:38;;;;;;;3.35;3.03;;;;;;;;;;1027680;28;20023;-74
2023/10/18 02:08:11;;;;;;;3.35;2.67;;;;;;;;;;1023335;28;20066;-76
2023/10/18 02:08:42;;;;;;;3.38;2.55;;;;;;;;;;1025204;28;20030;-76
2023/10/18 02:09:12;;;;;;;3.20;2.50;;;;;;;;;;1026445;28;20073;-75
2023/10/18 02:09:49;;;;;;;2.05;1.90;;;;;;;;;;1026104;28;20133;-75
2023/10/18 02:10:23;;;;;;;2.40;1.15;;;;;;;;;;1030637;28;20034;-75
2023/10/18 02:10:54;;;;;;;2.58;2.17;;;;;;;;;;1030537;28;20076;-76
2023/10/18 02:11:25;;;;;;;2.75;2.55;;;;;;;;;;1026867;28;20025;-76
2023/10/18 02:11:56;;;;;;;1.33;1.23;;;;;;;;;;1024766;28;20034;-74
2023/10/18 02:12:29;;;;;;;0.68;0.68;;;;;;;;;;1020571;28;20273;-76
2023/10/18 02:13:00;;;;;;;0.88;0.68;;;;;;;;;;1021959;28;20026;-78
2023/10/18 02:13:31;;;;;;;0.47;0.47;;;;;;;;;;1026338;28;20043;-77
2023/10/18 02:14:02;;;;;;;1.20;1.13;;;;;;;;;;1028347;28;20030;-77
2023/10/18 02:14:33;;;;;;;19.95;2.13;;;;;;;;;;1029473;28;20071;-79
2023/10/18 02:15:06;;;;;;;2.47;0.63;;;;;;;;;;1025097;28;20030;-78
2023/10/18 02:15:39;;;;;;;0.77;0.77;;;;;;;;;;1025902;28;20027;-77
2023/10/18 02:16:14;;;;;;;0.70;0.70;;;;;;;;;;1023761;28;20054;-76
2023/10/18 02:16:45;;;;;;;0.93;0.75;;;;;;;;;;1027972;28;20116;-78
2023/10/18 02:17:18;;;;;;;2.72;2.50;;;;;;;;;;1026951;28;20026;-76
2023/10/18 02:17:53;;;;;;;0.77;0.77;;;;;;;;;;1025347;28;20026;-77
2023/10/18 02:18:26;;;;;;;2.75;2.55;;;;;;;;;;1030580;28;20596;-78
2023/10/18 02:18:57;;;;;;;0.93;0.93;;;;;;;;;;1029374;28;20054;-77
2023/10/18 02:19:28;;;;;;;2.55;1.77;;;;;;;;;;1030034;28;20532;-76
2023/10/18 02:20:00;;;;;;;2.92;1.40;;;;;;;;;;1027831;28;20092;-77
2023/10/18 02:20:31;;;;;;;5.40;2.00;;;;;;;;;;1023894;28;20031;-79
2023/10/18 02:21:02;;;;;;;4.50;2.60;;;;;;;;;;1020511;28;20035;-76
2023/10/18 02:21:34;;;;;;;1.85;1.75;;;;;;;;;;1030671;23;20023;-77
2023/10/18 02:22:08;;;;;;;2.47;2.25;;;;;;;;;;1030592;28;20042;-76
2023/10/18 02:22:38;;;;;;;5.10;3.15;;;;;;;;;;1034372;28;20026;-76
2023/10/18 02:23:12;;;;;;;1.75;1.25;;;;;;;;;;1032526;28;20510;-76
2023/10/18 02:23:46;;;;;;;18.80;3.60;;;;;;;;;;1035758;28;20504;-75
2023/10/18 02:24:17;;;;;;;1.67;1.58;;;;;;;;;;1037223;28;20029;-75
2023/10/18 02:24:50;;;;;;;0.80;0.80;;;;;;;;;;1035621;28;20839;-75
2023/10/18 02:26:30;;;;;;;2.83;2.30;;;;;;;;;;1030244;28;20058;-75
2023/10/18 02:27:01;;;;;;;2.22;1.38;;;;;;;;;;1030828;28;20030;-75
2023/10/18 02:27:31;;;;;;;7.15;2.95;;;;;;;;;;1031422;28;20030;-76
2023/10/18 02:28:08;;;;;;;13.82;2.00;;;;;;;;;;1032789;28;20092;-77
2023/10/18 02:28:41;;;;;;;0.40;0.40;;;;;;;;;;1033098;28;20038;-77
2023/10/18 02:29:16;;;;;;;1.70;1.60;;;;;;;;;;1032548;28;20509;-77
2023/10/18 02:29:47;;;;;;;1.33;1.23;;;;;;;;;;1032999;28;20037;-78
2023/10/18 02:30:19;;;;;;;3.72;3.42;;;;;;;;;;1033352;28;20034;-75
2023/10/18 02:31:40;;;;;;;0.80;0.80;;;;;;;;;;1030351;28;20026;-77
2023/10/18 02:32:23;;;;;;;0.95;0.73;;;;;;;;;;1027431;28;20030;-75
2023/10/18 02:32:54;;;;;;;0.70;0.70;;;;;;;;;;1026600;28;20031;-75
2023/10/18 02:33:26;;;;;;;1.45;1.30;;;;;;;;;;1027143;28;20030;-74
2023/10/18 02:33:57;;;;;;;0.95;0.95;;;;;;;;;;1029904;28;20034;-76
2023/10/18 02:34:33;;;;;;;10.10;1.42;;;;;;;;;;1029271;28;20026;-78
2023/10/18 02:35:04;;;;;;;1.77;1.55;;;;;;;;;;1031740;28;20041;-75
2023/10/18 02:35:40;;;;;;;1.13;1.08;;;;;;;;;;1032331;28;20044;-78
2023/10/18 02:36:11;;;;;;;0.60;0.60;;;;;;;;;;1032193;28;20026;-75
2023/10/18 02:36:47;;;;;;;1.65;1.55;;;;;;;;;;1031983;28;20026;-75
2023/10/18 02:37:19;;;;;;;5.93;1.38;;;;;;;;;;1030871;28;20116;-74
2023/10/18 02:37:51;;;;;;;0.70;0.70;;;;;;;;;;1034082;28;20076;-75
2023/10/18 02:38:23;;;;;;;0.20;0.20;;;;;;;;;;1033290;28;20033;-76
2023/10/18 02:38:55;;;;;;;1.88;1.63;;;;;;;;;;1031411;28;20505;-76
2023/10/18 02:39:32;;;;;;;0.80;0.80;;;;;;;;;;1026360;28;20025;-76
2023/10/18 02:40:09;;;;;;;0.65;0.65;;;;;;;;;;1024305;28;20062;-76
2023/10/18 02:40:40;;;;;;;2.75;1.30;;;;;;;;;;1025897;28;20031;-75
2023/10/18 02:41:29;;;;;;;0.73;0.73;;;;;;;;;;1027388;28;20073;-76
2023/10/18 02:42:01;;;;;;;0.45;0.45;;;;;;;;;;1027591;28;20034;-74
2023/10/18 02:42:32;;;;;;;0.10;0.10;;;;;;;;;;1026825;28;20030;-74
2023/10/18 02:43:07;;;;;;;0.30;0.30;;;;;;;;;;1024327;28;20503;-75
2023/10/18 02:43:38;;;;;;;1.13;0.88;;;;;;;;;;1025954;28;20073;-76
2023/10/18 02:44:21;;;;;;;2.13;2.03;;;;;;;;;;1024651;28;20386;-76
2023/10/18 02:44:53;;;;;;;1.08;0.98;;;;;;;;;;1026768;28;20428;-76
2023/10/18 02:45:24;;;;;;;1.88;1.67;;;;;;;;;;1027392;28;20039;-74
2023/10/18 02:45:55;;;;;;;4.00;2.13;;;;;;;;;;1030454;28;20027;-73
2023/10/18 02:46:25;;;;;;;8.38;1.85;;;;;;;;;;1033385;28;20018;-74
2023/10/18 02:47:07;;;;;;;0.70;0.70;;;;;;;;;;1033397;28;20509;-73
2023/10/18 02:47:37;;;;;;;1.08;1.00;;;;;;;;;;1026946;28;20030;-74
2023/10/18 02:48:14;;;;;;;6.50;1.80;;;;;;;;;;1025927;28;20348;-73
2023/10/18 02:48:44;;;;;;;2.58;2.10;;;;;;;;;;1028508;28;20037;-75
2023/10/18 02:49:17;;;;;;;1.48;1.40;;;;;;;;;;1026142;28;20058;-75
2023/10/18 02:49:51;;;;;;;0.63;0.63;;;;;;;;;;1029689;28;20197;-77
2023/10/18 02:50:22;;;;;;;1.80;1.23;;;;;;;;;;1029898;28;20499;-77
2023/10/18 02:50:54;;;;;;;1.52;1.42;;;;;;;;;;1031112;28;20034;-77
2023/10/18 02:51:26;;;;;;;1.13;1.13;;;;;;;;;;1026723;28;20587;-77
2023/10/18 02:51:57;;;;;;;1.55;1.45;;;;;;;;;;1024338;28;20037;-77
2023/10/18 02:52:30;;;;;;;0.10;0.10;;;;;;;;;;1023737;28;20406;-77
2023/10/18 02:53:01;;;;;;;2.25;2.05;;;;;;;;;;1022775;28;20126;-77
2023/10/18 02:53:40;;;;;;;0.60;0.60;;;;;;;;;;1026782;28;20033;-78
2023/10/18 02:54:42;;;;;;;5.18;1.45;;;;;;;;;;1028064;28;20027;-77
2023/10/18 02:55:17;;;;;;;0.60;0.60;;;;;;;;;;1031490;28;20132;-77
2023/10/18 02:55:55;;;;;;;0.90;0.85;;;;;;;;;;1030225;28;20099;-77
2023/10/18 02:56:33;;;;;;;0.35;0.35;;;;;;;;;;1029878;28;20034;-76
2023/10/18 02:57:05;;;;;;;1.00;0.95;;;;;;;;;;1029489;28;20058;-76
2023/10/18 02:57:36;;;;;;;3.58;1.30;;;;;;;;;;1029096;28;20030;-77
2023/10/18 02:58:08;;;;;;;0.95;0.57;;;;;;;;;;1032359;28;20026;-76
2023/10/18 02:58:41;;;;;;;2.90;2.65;;;;;;;;;;1031969;28;20045;-76
2023/10/18 02:59:13;;;;;;;0.73;0.73;;;;;;;;;;1030686;28;20029;-74
2023/10/18 02:59:44;;;;;;;0.88;0.88;;;;;;;;;;1029875;28;20030;-75
2023/10/18 03:00:20;;;;;;;1.48;1.35;;;;;;;;;;1030282;28;20069;-75
2023/10/18 03:00:50;;;;;;;1.67;1.15;;;;;;;;;;1029845;28;20030;-75
2023/10/18 03:01:25;;;;;;;4.03;1.75;;;;;;;;;;1028516;28;20596;-76
2023/10/18 03:01:57;;;;;;;5.13;1.75;;;;;;;;;;1027065;28;20030;-74
2023/10/18 03:02:27;;;;;;;3.42;2.65;;;;;;;;;;1028385;28;20022;-73
2023/10/18 03:02:58;;;;;;;2.70;2.03;;;;;;;;;;1028168;28;20031;-75
2023/10/18 03:03:30;;;;;;;3.05;1.30;;;;;;;;;;1028166;28;20442;-76
2023/10/18 03:04:06;;;;;;;7.13;3.65;;;;;;;;;;1027174;28;20078;-76
2023/10/18 03:04:43;;;;;;;1.13;1.02;;;;;;;;;;1032676;28;20053;-75
2023/10/18 03:05:18;;;;;;;8.13;1.42;;;;;;;;;;1032606;28;20336;-76
2023/10/18 03:05:49;;;;;;;7.38;5.55;;;;;;;;;;1032319;28;20449;-76
2023/10/18 03:06:26;;;;;;;0.57;0.57;;;;;;;;;;1033216;28;20038;-76
2023/10/18 03:07:00;;;;;;;2.20;1.58;;;;;;;;;;1033046;28;20025;-76
2023/10/18 03:07:34;;;;;;;4.07;2.90;;;;;;;;;;1032183;28;20457;-77
2023/10/18 03:08:13;;;;;;;2.78;2.45;;;;;;;;;;1028512;28;20037;-75
2023/10/18 03:08:49;;;;;;;5.85;1.20;;;;;;;;;;1025577;28;20141;-77
2023/10/18 03:09:38;;;;;;;2.00;1.90;;;;;;;;;;1029297;28;20783;-77
2023/10/18 03:10:11;;;;;;;2.60;2.00;;;;;;;;;;1029730;28;20715;-76
2023/10/18 03:10:47;;;;;;;4.85;1.65;;;;;;;;;;1028725;28;20042;-76
2023/10/18 03:11:20;;;;;;;8.48;2.17;;;;;;;;;;1026441;28;20033;-76
2023/10/18 03:11:53;;;;;;;0.35;0.35;;;;;;;;;;1029648;28;20046;-76
2023/10/18 03:12:24;;;;;;;1.02;0.80;;;;;;;;;;1028584;28;20026;-75
2023/10/18 03:13:11;;;;;;;0.77;0.77;;;;;;;;;;1030929;28;20568;-77
2023/10/18 03:13:42;;;;;;;2.55;2.05;;;;;;;;;;1029497;28;21080;-76
2023/10/18 03:14:13;;;;;;;3.72;1.85;;;;;;;;;;1033726;28;20139;-74
2023/10/18 03:14:57;;;;;;;15.10;1.45;;;;;;;;;;1032893;28;20030;-76
2023/10/18 03:15:28;;;;;;;0.52;0.52;;;;;;;;;;1033280;28;20396;-73
2023/10/18 03:16:46;;;;;;;0.95;0.95;;;;;;;;;;1030094;28;20034;-77
2023/10/18 03:17:21;;;;;;;3.65;2.75;;;;;;;;;;1033373;28;20041;-77
2023/10/18 03:17:56;;;;;;;0.73;0.73;;;;;;;;;;1033594;28;20504;-77
2023/10/18 03:18:29;;;;;;;0.50;0.35;;;;;;;;;;1030790;28;20034;-76
2023/10/18 03:19:10;;;;;;;1.70;0.65;;;;;;;;;;1031760;28;20010;-76
2023/10/18 03:19:45;;;;;;;5.18;1.95;;;;;;;;;;1030025;28;20026;-76
2023/10/18 03:20:23;;;;;;;0.75;0.75;;;;;;;;;;1034049;28;20040;-74
2023/10/18 03:20:56;;;;;;;2.88;1.30;;;;;;;;;;1033800;28;20026;-75
2023/10/18 03:21:32;;;;;;;1.45;1.38;;;;;;;;;;1029078;28;20485;-74
2023/10/18 03:22:04;;;;;;;2.20;2.00;;;;;;;;;;1029957;28;20018;-74
2023/10/18 03:22:39;;;;;;;1.00;0.82;;;;;;;;;;1030099;28;20644;-73
2023/10/18 03:23:13;;;;;;;1.13;0.80;;;;;;;;;;1028919;28;20524;-75
2023/10/18 03:23:47;;;;;;;0.73;0.73;;;;;;;;;;1029592;28;20219;-76
2023/10/18 03:24:21;;;;;;;1.55;1.38;;;;;;;;;;1028993;28;20026;-73
2023/10/18 03:24:58;;;;;;;1.05;1.02;;;;;;;;;;1032531;28;20026;-75